Time;durP1;ratioP1;P1;durP2;ratioP2;P2;SDS_P1;SDS_P2;PMS_P1;PMS_P2;Temp;Humidity;BMP_temperature;BMP_pressure;BME280_temperature;BME280_humidity;BME280_pressure;Samples;Min_cycle;Max_cycle;Signal;HPM_P1;HPM_P2
2022/11/26 00:00:51;;;;;;;52.15;27.23;;;;;;;;;;4999672;28;20070;-77
2022/11/26 00:03:18;;;;;;;50.72;25.85;;;;;;;;;;5002817;28;20468;-78
2022/11/26 00:05:46;;;;;;;45.83;24.60;;;;;;;;;;4997323;28;20038;-77
2022/11/26 00:08:15;;;;;;;44.38;21.77;;;;;;;;;;5007869;28;20029;-75
2022/11/26 00:10:45;;;;;;;38.53;21.08;;;;;;;;;;5001516;28;20045;-75
2022/11/26 00:13:24;;;;;;;43.35;22.52;;;;;;;;;;4998055;28;20999;-76
2022/11/26 00:15:50;;;;;;;42.97;22.40;;;;;;;;;;4997906;28;20057;-77
2022/11/26 00:18:17;;;;;;;42.65;23.75;;;;;;;;;;5009330;28;20088;-77
2022/11/26 00:20:44;;;;;;;49.38;25.15;;;;;;;;;;5006889;28;20041;-79
2022/11/26 00:23:22;;;;;;;41.90;22.70;;;;;;;;;;5004276;28;20080;-77
2022/11/26 00:25:57;;;;;;;46.90;22.63;;;;;;;;;;5008268;28;20044;-77
2022/11/26 00:28:30;;;;;;;43.83;22.77;;;;;;;;;;4999333;28;20042;-78
2022/11/26 00:30:58;;;;;;;41.05;22.45;;;;;;;;;;5010942;28;20472;-78
2022/11/26 00:33:26;;;;;;;51.85;24.00;;;;;;;;;;4995880;28;20050;-78
2022/11/26 00:36:02;;;;;;;41.70;22.63;;;;;;;;;;5006263;28;20397;-78
2022/11/26 00:38:29;;;;;;;38.95;21.63;;;;;;;;;;5008488;28;20076;-77
2022/11/26 00:40:57;;;;;;;58.78;24.05;;;;;;;;;;4999475;28;20159;-78
2022/11/26 00:43:22;;;;;;;46.33;24.00;;;;;;;;;;5001682;28;20033;-77
2022/11/26 00:45:49;;;;;;;39.70;20.98;;;;;;;;;;4996474;28;20365;-78
2022/11/26 00:48:16;;;;;;;34.53;19.58;;;;;;;;;;5007757;28;20045;-78
2022/11/26 00:50:48;;;;;;;36.70;20.35;;;;;;;;;;5006870;28;20029;-76
2022/11/26 00:53:18;;;;;;;37.83;20.17;;;;;;;;;;5002967;28;20502;-75
2022/11/26 00:55:47;;;;;;;38.97;21.98;;;;;;;;;;4998990;28;20038;-76
2022/11/26 00:58:25;;;;;;;38.17;21.80;;;;;;;;;;5006231;28;20482;-75
2022/11/26 01:00:51;;;;;;;38.00;20.38;;;;;;;;;;5008644;28;20104;-75
2022/11/26 01:03:17;;;;;;;35.67;18.88;;;;;;;;;;5004840;28;20425;-76
2022/11/26 01:05:43;;;;;;;30.90;16.52;;;;;;;;;;5002888;28;20037;-75
2022/11/26 01:08:36;;;;;;;29.60;15.52;;;;;;;;;;5004630;28;20475;-76
2022/11/26 01:11:04;;;;;;;26.57;12.43;;;;;;;;;;4999888;28;20124;-75
2022/11/26 01:13:31;;;;;;;18.95;9.63;;;;;;;;;;5009274;28;20449;-73
2022/11/26 01:15:59;;;;;;;12.80;8.18;;;;;;;;;;5001633;28;20113;-75
2022/11/26 01:18:26;;;;;;;21.17;10.80;;;;;;;;;;5001201;28;20034;-75
2022/11/26 01:20:51;;;;;;;19.70;11.20;;;;;;;;;;5002749;28;20420;-75
2022/11/26 01:23:19;;;;;;;16.75;9.55;;;;;;;;;;5011128;28;20088;-75
2022/11/26 01:25:46;;;;;;;20.08;10.63;;;;;;;;;;5009713;28;20033;-75
2022/11/26 01:28:18;;;;;;;17.98;8.57;;;;;;;;;;5007413;28;20038;-76
2022/11/26 01:30:45;;;;;;;14.75;7.72;;;;;;;;;;5011878;28;20038;-75
2022/11/26 01:33:11;;;;;;;13.55;7.47;;;;;;;;;;5011076;28;20045;-75
2022/11/26 01:35:37;;;;;;;14.07;7.90;;;;;;;;;;5011314;28;20026;-75
2022/11/26 01:38:04;;;;;;;12.95;7.47;;;;;;;;;;5006565;28;20108;-75
2022/11/26 01:40:35;;;;;;;13.15;7.38;;;;;;;;;;5008275;28;20124;-75
2022/11/26 01:43:16;;;;;;;16.35;9.10;;;;;;;;;;5008554;28;20021;-76
2022/11/26 01:45:41;;;;;;;15.40;8.95;;;;;;;;;;5011493;28;20810;-75
2022/11/26 01:48:30;;;;;;;18.58;7.82;;;;;;;;;;5013056;28;20029;-75
2022/11/26 01:51:05;;;;;;;12.75;7.18;;;;;;;;;;5008736;28;20037;-75
2022/11/26 01:53:50;;;;;;;14.98;8.55;;;;;;;;;;5002208;28;20104;-75
2022/11/26 01:56:19;;;;;;;17.35;8.23;;;;;;;;;;5007142;28;20443;-75
2022/11/26 01:58:50;;;;;;;19.98;8.50;;;;;;;;;;5005696;28;20057;-75
2022/11/26 02:01:17;;;;;;;22.02;10.68;;;;;;;;;;5006890;28;20026;-75
2022/11/26 02:03:51;;;;;;;24.00;10.98;;;;;;;;;;5008624;28;20033;-76
2022/11/26 02:06:23;;;;;;;19.13;10.35;;;;;;;;;;5009455;28;20030;-75
2022/11/26 02:08:48;;;;;;;21.35;10.75;;;;;;;;;;5004336;28;20504;-75
2022/11/26 02:11:19;;;;;;;18.98;10.77;;;;;;;;;;5008150;28;20072;-75
2022/11/26 02:13:47;;;;;;;18.65;10.20;;;;;;;;;;5007450;28;20038;-75
2022/11/26 02:16:45;;;;;;;20.52;10.68;;;;;;;;;;5003638;28;20113;-74
2022/11/26 02:19:23;;;;;;;18.25;10.20;;;;;;;;;;5010148;28;20523;-75
2022/11/26 02:22:01;;;;;;;18.63;9.52;;;;;;;;;;5004640;28;20030;-74
2022/11/26 02:24:58;;;;;;;16.98;10.00;;;;;;;;;;5024748;28;20049;-75
2022/11/26 02:28:04;;;;;;;19.88;10.60;;;;;;;;;;5006649;28;20036;-75
2022/11/26 02:30:36;;;;;;;17.35;9.30;;;;;;;;;;5009125;28;20029;-75
2022/11/26 02:33:11;;;;;;;16.00;8.95;;;;;;;;;;5006653;28;20535;-75
2022/11/26 02:35:47;;;;;;;13.38;8.20;;;;;;;;;;5010498;28;20069;-75
2022/11/26 02:38:23;;;;;;;15.00;8.35;;;;;;;;;;5010409;28;20041;-75
2022/11/26 02:40:50;;;;;;;20.67;8.65;;;;;;;;;;5010632;28;20116;-75
2022/11/26 02:43:17;;;;;;;13.32;7.90;;;;;;;;;;5011544;28;20018;-75
2022/11/26 02:45:54;;;;;;;22.30;8.68;;;;;;;;;;5015382;28;20022;-75
2022/11/26 02:48:31;;;;;;;14.18;7.32;;;;;;;;;;5015006;28;20049;-75
2022/11/26 02:51:04;;;;;;;13.70;8.32;;;;;;;;;;5014264;28;20084;-76
2022/11/26 02:53:33;;;;;;;16.15;8.88;;;;;;;;;;5012509;28;20033;-75
2022/11/26 02:56:06;;;;;;;12.95;8.50;;;;;;;;;;5011895;28;20088;-75
2022/11/26 02:58:33;;;;;;;17.65;9.40;;;;;;;;;;5012159;28;20577;-75
2022/11/26 03:01:04;;;;;;;20.63;9.95;;;;;;;;;;5012103;28;20387;-75
2022/11/26 03:03:35;;;;;;;16.38;9.35;;;;;;;;;;5013598;28;20439;-75
2022/11/26 03:06:07;;;;;;;15.77;9.13;;;;;;;;;;5013491;28;20075;-75
2022/11/26 03:08:34;;;;;;;15.52;8.45;;;;;;;;;;5012538;28;20045;-75
2022/11/26 03:11:00;;;;;;;15.23;8.23;;;;;;;;;;5011126;28;20304;-75
2022/11/26 03:13:26;;;;;;;17.50;8.68;;;;;;;;;;5011588;28;20451;-75
2022/11/26 03:15:53;;;;;;;17.58;9.45;;;;;;;;;;5017719;28;20434;-74
2022/11/26 03:18:19;;;;;;;16.65;10.55;;;;;;;;;;5031066;28;20116;-75
2022/11/26 03:20:45;;;;;;;17.73;10.68;;;;;;;;;;5046782;28;20509;-74
2022/11/26 03:23:12;;;;;;;15.75;9.25;;;;;;;;;;5030895;28;20132;-75
2022/11/26 03:25:37;;;;;;;17.45;9.77;;;;;;;;;;5030997;28;20125;-75
2022/11/26 03:28:03;;;;;;;17.20;9.27;;;;;;;;;;5031060;28;20132;-75
2022/11/26 03:30:29;;;;;;;20.30;10.00;;;;;;;;;;5027461;28;20460;-75
2022/11/26 03:32:55;;;;;;;21.70;11.05;;;;;;;;;;5011046;28;20037;-75
2022/11/26 03:35:21;;;;;;;23.13;9.90;;;;;;;;;;5009422;28;20032;-74
2022/11/26 03:37:47;;;;;;;18.48;9.43;;;;;;;;;;5008778;28;20034;-74
2022/11/26 03:40:15;;;;;;;17.98;9.48;;;;;;;;;;5011458;28;20036;-76
2022/11/26 03:42:42;;;;;;;27.95;11.23;;;;;;;;;;5010279;28;20030;-75
2022/11/26 03:45:08;;;;;;;20.48;12.20;;;;;;;;;;5011747;28;20507;-75
2022/11/26 03:47:34;;;;;;;21.65;11.95;;;;;;;;;;5011623;28;20115;-75
2022/11/26 03:50:00;;;;;;;23.17;11.55;;;;;;;;;;5010397;28;20499;-75
2022/11/26 03:52:26;;;;;;;21.33;11.25;;;;;;;;;;5011231;28;20268;-75
2022/11/26 03:54:52;;;;;;;25.60;11.52;;;;;;;;;;5011832;28;20105;-74
2022/11/26 03:57:19;;;;;;;26.80;12.20;;;;;;;;;;5011558;28;20184;-75
2022/11/26 03:59:44;;;;;;;22.25;11.27;;;;;;;;;;5011473;28;20025;-75
2022/11/26 04:02:11;;;;;;;23.80;12.13;;;;;;;;;;5011476;28;20029;-75
2022/11/26 04:04:37;;;;;;;25.02;13.40;;;;;;;;;;5010367;28;20491;-74
2022/11/26 04:07:03;;;;;;;21.60;12.10;;;;;;;;;;5011744;28;20038;-75
2022/11/26 04:09:29;;;;;;;23.73;11.15;;;;;;;;;;5011747;28;20558;-74
2022/11/26 04:11:55;;;;;;;25.02;12.57;;;;;;;;;;5011482;28;20041;-76
2022/11/26 04:14:22;;;;;;;25.17;13.30;;;;;;;;;;5010819;28;20022;-74
2022/11/26 04:16:48;;;;;;;23.38;13.82;;;;;;;;;;4993716;28;20044;-74
2022/11/26 04:19:14;;;;;;;23.90;14.00;;;;;;;;;;4991677;28;20113;-75
2022/11/26 04:21:40;;;;;;;23.63;12.32;;;;;;;;;;4991429;28;20035;-74
2022/11/26 04:24:06;;;;;;;19.90;10.27;;;;;;;;;;4991169;28;20049;-74
2022/11/26 04:26:32;;;;;;;21.23;10.68;;;;;;;;;;4991149;28;20039;-74
2022/11/26 04:28:58;;;;;;;19.40;10.82;;;;;;;;;;4991053;28;20034;-74
2022/11/26 04:31:24;;;;;;;19.75;10.60;;;;;;;;;;5016375;28;20087;-74
2022/11/26 04:33:50;;;;;;;24.02;11.38;;;;;;;;;;5030299;28;20022;-74
2022/11/26 04:36:16;;;;;;;22.77;11.43;;;;;;;;;;5029459;28;20046;-74
2022/11/26 04:38:42;;;;;;;21.80;11.52;;;;;;;;;;5020968;28;20018;-74
2022/11/26 04:41:08;;;;;;;20.52;11.70;;;;;;;;;;5010832;28;20500;-74
2022/11/26 04:43:34;;;;;;;23.83;11.75;;;;;;;;;;5010574;28;20109;-74
2022/11/26 04:46:00;;;;;;;33.42;15.50;;;;;;;;;;5010981;28;20052;-74
2022/11/26 04:48:25;;;;;;;36.17;13.40;;;;;;;;;;5011518;28;20022;-75
2022/11/26 04:50:52;;;;;;;22.17;11.85;;;;;;;;;;5010969;28;20045;-74
2022/11/26 04:53:20;;;;;;;22.02;13.25;;;;;;;;;;5011622;28;20056;-75
2022/11/26 04:55:48;;;;;;;21.38;12.52;;;;;;;;;;5011267;28;20037;-76
2022/11/26 04:58:16;;;;;;;24.40;11.73;;;;;;;;;;5013419;28;20022;-74
2022/11/26 05:00:42;;;;;;;19.15;11.18;;;;;;;;;;5017658;28;20038;-75
2022/11/26 05:03:08;;;;;;;25.20;13.13;;;;;;;;;;5014977;28;20022;-75
2022/11/26 05:05:35;;;;;;;22.02;11.57;;;;;;;;;;5015138;28;20091;-76
2022/11/26 05:08:01;;;;;;;28.58;13.25;;;;;;;;;;5014438;28;20026;-75
2022/11/26 05:10:28;;;;;;;25.17;11.93;;;;;;;;;;5015358;28;20037;-76
2022/11/26 05:12:54;;;;;;;21.73;11.35;;;;;;;;;;5013254;28;20061;-75
2022/11/26 05:15:20;;;;;;;22.05;11.98;;;;;;;;;;5017907;28;20045;-74
2022/11/26 05:17:46;;;;;;;16.77;9.45;;;;;;;;;;5032523;28;20569;-75
2022/11/26 05:20:13;;;;;;;18.80;10.40;;;;;;;;;;5021477;28;20045;-75
2022/11/26 05:22:40;;;;;;;17.15;10.30;;;;;;;;;;5013956;28;20014;-76
2022/11/26 05:25:07;;;;;;;18.55;10.10;;;;;;;;;;5015289;28;20026;-76
2022/11/26 05:27:33;;;;;;;19.23;10.00;;;;;;;;;;5011673;28;20045;-75
2022/11/26 05:29:59;;;;;;;15.32;9.07;;;;;;;;;;5013115;28;20026;-74
2022/11/26 05:32:24;;;;;;;15.82;8.77;;;;;;;;;;5012952;28;20028;-75
2022/11/26 05:34:50;;;;;;;20.25;9.43;;;;;;;;;;5014305;28;20088;-75
2022/11/26 05:37:16;;;;;;;14.00;8.25;;;;;;;;;;5014195;28;20030;-75
2022/11/26 05:39:42;;;;;;;14.63;8.13;;;;;;;;;;5014513;28;20120;-74
2022/11/26 05:42:08;;;;;;;19.35;8.32;;;;;;;;;;5014822;28;20464;-76
2022/11/26 05:44:34;;;;;;;19.25;8.60;;;;;;;;;;5014615;28;20026;-75
2022/11/26 05:47:00;;;;;;;20.23;9.40;;;;;;;;;;5014404;28;20018;-74
2022/11/26 05:49:25;;;;;;;18.17;11.40;;;;;;;;;;5014170;28;20026;-77
2022/11/26 05:51:51;;;;;;;21.80;12.02;;;;;;;;;;5014003;28;20051;-77
2022/11/26 05:54:17;;;;;;;24.70;11.43;;;;;;;;;;5013794;28;20049;-77
2022/11/26 05:56:43;;;;;;;21.05;10.38;;;;;;;;;;5013820;28;20021;-76
2022/11/26 05:59:10;;;;;;;17.00;10.05;;;;;;;;;;5014035;28;20034;-76
2022/11/26 06:01:36;;;;;;;21.40;9.98;;;;;;;;;;5014150;28;20033;-76
2022/11/26 06:04:02;;;;;;;15.63;10.32;;;;;;;;;;5014385;28;20556;-75
2022/11/26 06:06:28;;;;;;;22.50;12.10;;;;;;;;;;5011195;28;20033;-77
2022/11/26 06:08:54;;;;;;;22.77;12.02;;;;;;;;;;5013602;28;20038;-76
2022/11/26 06:11:20;;;;;;;17.02;11.07;;;;;;;;;;5014484;28;20022;-77
2022/11/26 06:13:46;;;;;;;17.67;9.60;;;;;;;;;;5014464;28;20041;-76
2022/11/26 06:16:12;;;;;;;16.77;9.88;;;;;;;;;;5014749;28;20480;-77
2022/11/26 06:18:39;;;;;;;20.27;9.52;;;;;;;;;;5014080;28;20057;-76
2022/11/26 06:21:06;;;;;;;16.55;9.57;;;;;;;;;;5014865;28;20033;-76
2022/11/26 06:23:33;;;;;;;14.93;9.13;;;;;;;;;;5014161;28;20132;-76
2022/11/26 06:25:59;;;;;;;17.63;8.23;;;;;;;;;;5013637;28;20487;-77
2022/11/26 06:28:25;;;;;;;16.02;8.35;;;;;;;;;;5013771;28;20034;-76
2022/11/26 06:30:51;;;;;;;19.10;9.32;;;;;;;;;;5009997;28;20088;-76
2022/11/26 06:33:19;;;;;;;20.35;11.05;;;;;;;;;;5013149;28;20042;-74
2022/11/26 06:35:45;;;;;;;17.63;9.88;;;;;;;;;;5013910;28;20030;-74
2022/11/26 06:38:11;;;;;;;21.50;12.18;;;;;;;;;;5012948;28;20357;-76
2022/11/26 06:40:38;;;;;;;20.05;11.65;;;;;;;;;;5012904;28;20149;-76
2022/11/26 06:43:05;;;;;;;19.10;12.00;;;;;;;;;;5014137;28;20025;-77
2022/11/26 06:45:31;;;;;;;17.13;11.43;;;;;;;;;;5013803;28;20029;-74
2022/11/26 06:47:57;;;;;;;24.00;12.95;;;;;;;;;;5010045;28;20128;-74
2022/11/26 06:50:23;;;;;;;24.50;14.00;;;;;;;;;;5013506;28;20110;-74
2022/11/26 06:52:51;;;;;;;23.50;14.10;;;;;;;;;;5013021;28;20038;-75
2022/11/26 06:55:18;;;;;;;26.48;14.50;;;;;;;;;;5005954;28;20057;-74
2022/11/26 06:57:43;;;;;;;26.13;15.02;;;;;;;;;;5013679;28;20034;-76
2022/11/26 07:00:10;;;;;;;31.88;17.25;;;;;;;;;;5013918;28;20388;-76
2022/11/26 07:02:37;;;;;;;32.03;17.45;;;;;;;;;;5011188;28;20042;-76
2022/11/26 07:05:03;;;;;;;23.83;14.60;;;;;;;;;;5013622;28;20045;-76
2022/11/26 07:07:29;;;;;;;25.23;15.60;;;;;;;;;;5012688;28;20030;-77
2022/11/26 07:09:55;;;;;;;28.80;16.13;;;;;;;;;;5011012;28;20499;-78
2022/11/26 07:12:21;;;;;;;25.67;15.40;;;;;;;;;;5012205;28;20037;-78
2022/11/26 07:14:46;;;;;;;29.35;16.02;;;;;;;;;;5012679;28;20384;-77
2022/11/26 07:17:12;;;;;;;25.55;15.20;;;;;;;;;;5012946;28;20033;-77
2022/11/26 07:19:38;;;;;;;25.05;16.02;;;;;;;;;;5012249;28;20526;-79
2022/11/26 07:22:04;;;;;;;29.33;15.95;;;;;;;;;;5013212;28;20060;-76
2022/11/26 07:24:30;;;;;;;34.17;17.58;;;;;;;;;;5024761;28;20112;-75
2022/11/26 07:26:55;;;;;;;28.70;16.70;;;;;;;;;;5011457;28;20384;-74
2022/11/26 07:29:21;;;;;;;28.92;17.17;;;;;;;;;;5011875;28;20021;-75
2022/11/26 07:31:47;;;;;;;31.75;17.10;;;;;;;;;;5009801;28;20049;-76
2022/11/26 07:34:13;;;;;;;30.10;15.90;;;;;;;;;;5013683;28;20041;-80
2022/11/26 07:36:41;;;;;;;24.00;15.05;;;;;;;;;;5014332;28;20037;-79
2022/11/26 07:39:09;;;;;;;25.65;13.40;;;;;;;;;;4994943;28;20029;-73
2022/11/26 07:41:35;;;;;;;23.25;13.88;;;;;;;;;;5012841;28;20492;-76
2022/11/26 07:44:01;;;;;;;23.52;13.07;;;;;;;;;;5013077;28;20069;-77
2022/11/26 07:46:27;;;;;;;22.98;13.88;;;;;;;;;;5011685;28;20173;-79
2022/11/26 07:48:54;;;;;;;23.67;13.88;;;;;;;;;;5009507;28;20030;-76
2022/11/26 07:51:26;;;;;;;25.27;13.40;;;;;;;;;;5011347;28;20518;-79
2022/11/26 07:53:53;;;;;;;26.13;13.65;;;;;;;;;;5009788;28;20076;-73
2022/11/26 07:56:19;;;;;;;23.70;12.50;;;;;;;;;;5007386;28;20092;-73
2022/11/26 07:58:45;;;;;;;22.25;13.07;;;;;;;;;;5012031;28;20040;-74
2022/11/26 08:01:15;;;;;;;23.60;12.48;;;;;;;;;;5012061;28;20487;-74
2022/11/26 08:03:44;;;;;;;20.13;10.23;;;;;;;;;;5009163;28;20037;-74
2022/11/26 08:06:13;;;;;;;17.20;8.57;;;;;;;;;;5012107;28;20030;-75
2022/11/26 08:08:40;;;;;;;17.35;9.48;;;;;;;;;;5013660;28;20032;-75
2022/11/26 08:11:15;;;;;;;18.27;9.60;;;;;;;;;;5011250;28;20042;-73
2022/11/26 08:13:42;;;;;;;19.30;8.68;;;;;;;;;;5009477;28;20034;-75
2022/11/26 08:16:09;;;;;;;17.27;8.55;;;;;;;;;;5008446;28;20034;-74
2022/11/26 08:18:34;;;;;;;39.40;9.85;;;;;;;;;;4993030;28;20062;-76
2022/11/26 08:21:00;;;;;;;16.83;7.70;;;;;;;;;;5008869;28;20565;-75
2022/11/26 08:23:28;;;;;;;16.27;7.20;;;;;;;;;;5010101;28;20061;-74
2022/11/26 08:25:54;;;;;;;10.77;6.45;;;;;;;;;;5010028;28;20032;-74
2022/11/26 08:28:20;;;;;;;12.48;7.60;;;;;;;;;;5009087;28;20109;-76
2022/11/26 08:30:46;;;;;;;13.82;6.75;;;;;;;;;;5011366;28;20108;-75
2022/11/26 08:33:32;;;;;;;14.90;7.75;;;;;;;;;;5010377;28;20042;-74
2022/11/26 08:35:58;;;;;;;15.30;7.68;;;;;;;;;;5009111;28;20046;-77
2022/11/26 08:38:26;;;;;;;15.80;7.60;;;;;;;;;;5012952;28;20558;-75
2022/11/26 08:40:53;;;;;;;12.18;6.68;;;;;;;;;;4996530;28;20065;-74
2022/11/26 08:43:21;;;;;;;15.02;7.00;;;;;;;;;;5002559;28;20109;-77
2022/11/26 08:45:55;;;;;;;18.38;8.35;;;;;;;;;;4987607;28;20496;-75
2022/11/26 08:48:22;;;;;;;14.77;7.53;;;;;;;;;;5008960;28;20038;-75
2022/11/26 08:50:49;;;;;;;13.13;7.28;;;;;;;;;;5007089;28;20128;-76
2022/11/26 08:53:16;;;;;;;13.80;7.82;;;;;;;;;;5011542;28;20113;-76
2022/11/26 08:55:41;;;;;;;10.85;6.65;;;;;;;;;;5010817;28;20167;-77
2022/11/26 08:58:08;;;;;;;13.60;6.88;;;;;;;;;;5011662;28;20479;-75
2022/11/26 09:00:34;;;;;;;14.82;7.72;;;;;;;;;;5011668;28;20488;-77
2022/11/26 09:03:02;;;;;;;12.68;7.93;;;;;;;;;;4999302;28;20035;-76
2022/11/26 09:05:28;;;;;;;9.80;6.82;;;;;;;;;;4991767;28;20034;-76
2022/11/26 09:07:54;;;;;;;12.70;7.97;;;;;;;;;;5005607;28;20127;-75
2022/11/26 09:10:20;;;;;;;11.95;7.22;;;;;;;;;;5014717;28;20420;-77
2022/11/26 09:12:46;;;;;;;14.68;7.60;;;;;;;;;;5027490;28;20030;-76
2022/11/26 09:15:11;;;;;;;13.30;7.45;;;;;;;;;;5014206;28;20025;-77
2022/11/26 09:17:39;;;;;;;10.75;6.20;;;;;;;;;;5015556;28;20045;-77
2022/11/26 09:20:05;;;;;;;11.70;6.50;;;;;;;;;;5014659;28;20030;-76
2022/11/26 09:22:31;;;;;;;15.90;6.50;;;;;;;;;;5015120;28;20045;-76
2022/11/26 09:24:58;;;;;;;11.20;5.60;;;;;;;;;;5015092;28;20404;-78
2022/11/26 09:27:24;;;;;;;23.23;7.30;;;;;;;;;;5015054;28;20058;-76
2022/11/26 09:29:50;;;;;;;12.70;5.93;;;;;;;;;;5014998;28;20025;-75
2022/11/26 09:32:15;;;;;;;10.55;5.78;;;;;;;;;;5012792;28;20034;-74
2022/11/26 09:34:41;;;;;;;11.43;5.70;;;;;;;;;;5015162;28;20395;-74
2022/11/26 09:37:07;;;;;;;15.32;5.40;;;;;;;;;;5014872;28;20412;-75
2022/11/26 09:39:33;;;;;;;11.25;5.43;;;;;;;;;;5012765;28;20017;-76
2022/11/26 09:42:06;;;;;;;15.98;5.68;;;;;;;;;;5008286;28;20060;-76
2022/11/26 09:44:39;;;;;;;9.70;4.75;;;;;;;;;;5012194;28;20034;-76
2022/11/26 09:47:11;;;;;;;;;;;;;;;;;;5013209;28;20080;-75
2022/11/26 09:50:09;;;;;;;8.57;4.32;;;;;;;;;;5004224;28;19917;-75
2022/11/26 09:52:53;;;;;;;7.45;4.43;;;;;;;;;;5007378;28;20046;-75
2022/11/26 09:55:24;;;;;;;9.63;5.28;;;;;;;;;;5011311;28;20079;-74
2022/11/26 09:58:15;;;;;;;6.18;4.28;;;;;;;;;;5014083;28;20026;-74
2022/11/26 10:00:49;;;;;;;7.82;4.10;;;;;;;;;;5014901;28;20026;-76
2022/11/26 10:03:30;;;;;;;9.43;4.70;;;;;;;;;;5014926;28;20393;-76
2022/11/26 10:06:24;;;;;;;7.00;4.18;;;;;;;;;;5014188;28;20030;-75
2022/11/26 10:09:14;;;;;;;7.95;4.40;;;;;;;;;;5014557;28;20038;-76
2022/11/26 10:11:53;;;;;;;7.93;4.45;;;;;;;;;;5012534;28;20500;-75
2022/11/26 10:14:24;;;;;;;12.07;5.05;;;;;;;;;;5014073;28;20104;-77
2022/11/26 10:17:27;;;;;;;11.68;4.63;;;;;;;;;;5013863;28;20037;-79
2022/11/26 10:20:06;;;;;;;11.02;4.20;;;;;;;;;;5014192;28;20041;-75
2022/11/26 10:22:58;;;;;;;6.32;3.90;;;;;;;;;;5012300;28;20038;-73
2022/11/26 10:25:29;;;;;;;5.82;3.25;;;;;;;;;;5005579;28;20444;-73
2022/11/26 10:27:58;;;;;;;5.43;3.10;;;;;;;;;;5011236;28;20029;-74
2022/11/26 10:30:26;;;;;;;8.50;3.53;;;;;;;;;;5011128;28;20045;-74
2022/11/26 10:32:54;;;;;;;6.25;3.15;;;;;;;;;;5013521;28;20030;-74
2022/11/26 10:35:22;;;;;;;9.15;3.55;;;;;;;;;;5013609;28;20068;-75
2022/11/26 10:37:48;;;;;;;9.57;4.28;;;;;;;;;;5010048;28;20037;-76
2022/11/26 10:40:30;;;;;;;5.88;3.13;;;;;;;;;;5014341;28;20387;-75
2022/11/26 10:43:09;;;;;;;3.80;2.22;;;;;;;;;;5012380;28;20109;-77
2022/11/26 10:45:39;;;;;;;11.13;6.00;;;;;;;;;;5007998;28;20034;-76
2022/11/26 10:48:29;;;;;;;8.02;3.63;;;;;;;;;;5011351;28;20057;-74
2022/11/26 10:51:14;;;;;;;7.88;3.50;;;;;;;;;;5004419;28;20095;-77
2022/11/26 10:54:26;;;;;;;7.20;3.50;;;;;;;;;;5014927;28;20064;-77
2022/11/26 10:56:52;;;;;;;7.60;3.80;;;;;;;;;;4995789;28;20065;-78
2022/11/26 10:59:24;;;;;;;6.03;3.28;;;;;;;;;;5012785;28;20069;-77
2022/11/26 11:01:51;;;;;;;5.40;3.08;;;;;;;;;;5011681;28;20117;-76
2022/11/26 11:04:33;;;;;;;6.35;3.42;;;;;;;;;;5011268;28;20029;-76
2022/11/26 11:06:59;;;;;;;5.20;3.17;;;;;;;;;;4995428;28;20034;-74
2022/11/26 11:09:32;;;;;;;7.07;3.50;;;;;;;;;;4993127;28;20068;-75
2022/11/26 11:12:09;;;;;;;8.67;3.93;;;;;;;;;;4992793;28;20042;-77
2022/11/26 11:14:36;;;;;;;44.70;5.20;;;;;;;;;;4999940;28;20483;-76
2022/11/26 11:17:03;;;;;;;8.10;2.67;;;;;;;;;;5012734;28;20472;-75
2022/11/26 11:19:29;;;;;;;8.70;2.90;;;;;;;;;;5013274;28;20468;-77
2022/11/26 11:21:56;;;;;;;7.13;3.17;;;;;;;;;;5012930;28;20022;-76
2022/11/26 11:24:26;;;;;;;4.22;2.42;;;;;;;;;;5012172;28;20045;-74
2022/11/26 11:26:56;;;;;;;5.28;2.30;;;;;;;;;;5006279;28;20546;-73
2022/11/26 11:29:33;;;;;;;5.05;2.55;;;;;;;;;;4991797;28;20042;-75
2022/11/26 11:32:01;;;;;;;4.75;2.97;;;;;;;;;;5011687;28;20539;-75
2022/11/26 11:34:32;;;;;;;9.57;3.92;;;;;;;;;;5013446;28;20026;-75
2022/11/26 11:37:13;;;;;;;7.43;3.30;;;;;;;;;;5011032;28;20034;-75
2022/11/26 11:39:39;;;;;;;8.52;2.90;;;;;;;;;;5010808;28;20052;-74
2022/11/26 11:42:28;;;;;;;9.38;3.67;;;;;;;;;;5010550;28;20021;-74
2022/11/26 11:44:57;;;;;;;6.95;3.13;;;;;;;;;;5012013;28;20401;-74
2022/11/26 11:47:37;;;;;;;4.72;2.40;;;;;;;;;;5011226;28;20111;-74
2022/11/26 11:50:14;;;;;;;4.90;2.40;;;;;;;;;;5013082;28;20038;-73
2022/11/26 11:53:17;;;;;;;5.88;3.58;;;;;;;;;;5011436;28;20092;-73
2022/11/26 11:56:19;;;;;;;5.68;3.15;;;;;;;;;;5012925;28;20033;-74
2022/11/26 11:58:56;;;;;;;10.07;3.30;;;;;;;;;;5013192;28;20030;-73
2022/11/26 12:02:07;;;;;;;6.88;3.97;;;;;;;;;;5012945;28;20044;-73
2022/11/26 12:05:12;;;;;;;9.48;2.92;;;;;;;;;;5013047;28;20048;-74
2022/11/26 12:07:52;;;;;;;5.18;2.53;;;;;;;;;;5012755;28;20173;-73
2022/11/26 12:10:33;;;;;;;5.35;2.90;;;;;;;;;;5011713;28;20042;-74
2022/11/26 12:13:00;;;;;;;6.13;3.13;;;;;;;;;;5011566;28;20038;-73
2022/11/26 12:15:38;;;;;;;4.82;2.67;;;;;;;;;;5011259;28;20022;-74
2022/11/26 12:18:43;;;;;;;5.13;2.90;;;;;;;;;;5012675;28;20029;-75
2022/11/26 12:21:15;;;;;;;6.63;2.90;;;;;;;;;;4979314;28;20069;-74
2022/11/26 12:24:19;;;;;;;6.20;3.47;;;;;;;;;;5011619;28;20046;-74
2022/11/26 12:26:54;;;;;;;4.82;2.53;;;;;;;;;;5012608;28;20501;-77
2022/11/26 12:29:41;;;;;;;5.28;3.00;;;;;;;;;;5012668;28;20113;-74
2022/11/26 12:32:33;;;;;;;24.95;4.43;;;;;;;;;;5012476;28;20118;-76
2022/11/26 12:35:05;;;;;;;10.35;4.00;;;;;;;;;;5012520;28;20037;-75
2022/11/26 12:37:39;;;;;;;6.93;3.55;;;;;;;;;;5012602;28;20049;-75
2022/11/26 12:40:18;;;;;;;11.18;4.18;;;;;;;;;;5012487;28;20125;-74
2022/11/26 12:43:03;;;;;;;4.68;2.80;;;;;;;;;;5012642;28;20109;-73
2022/11/26 12:46:03;;;;;;;7.38;3.53;;;;;;;;;;5012884;28;20069;-73
2022/11/26 12:48:49;;;;;;;9.20;2.70;;;;;;;;;;5011494;28;20045;-75
2022/11/26 12:51:23;;;;;;;4.35;2.70;;;;;;;;;;5012619;28;20483;-73
2022/11/26 12:54:15;;;;;;;6.35;3.05;;;;;;;;;;5011216;28;20125;-74
2022/11/26 12:56:59;;;;;;;7.03;2.90;;;;;;;;;;4995696;28;20411;-72
2022/11/26 12:59:57;;;;;;;11.25;3.75;;;;;;;;;;5010745;28;20104;-74
2022/11/26 13:02:45;;;;;;;6.18;3.63;;;;;;;;;;5008761;28;20109;-73
2022/11/26 13:05:19;;;;;;;6.97;3.70;;;;;;;;;;5002232;28;20188;-75
2022/11/26 13:07:45;;;;;;;;;;;;;;;;;;5008667;28;20442;-72
2022/11/26 13:10:19;;;;;;;9.65;4.28;;;;;;;;;;4995776;28;19909;-73
2022/11/26 13:12:51;;;;;;;10.80;4.55;;;;;;;;;;4992380;28;20071;-73
2022/11/26 13:15:33;;;;;;;9.15;4.68;;;;;;;;;;4999944;28;20045;-74
2022/11/26 13:18:02;;;;;;;14.02;5.53;;;;;;;;;;5005239;28;20066;-74
2022/11/26 13:21:09;;;;;;;16.42;4.70;;;;;;;;;;5016778;28;20026;-75
2022/11/26 13:24:11;;;;;;;6.38;2.70;;;;;;;;;;4957104;28;20039;-73
2022/11/26 13:26:46;;;;;;;16.90;5.68;;;;;;;;;;4996306;28;20038;-76
2022/11/26 13:29:33;;;;;;;7.25;3.55;;;;;;;;;;4996650;28;20070;-74
2022/11/26 13:32:37;;;;;;;9.48;4.05;;;;;;;;;;5015744;28;20054;-74
2022/11/26 13:35:21;;;;;;;7.15;3.40;;;;;;;;;;5008216;28;20046;-77
2022/11/26 13:38:11;;;;;;;6.63;3.28;;;;;;;;;;4995935;28;20039;-77
2022/11/26 13:41:04;;;;;;;7.32;3.88;;;;;;;;;;4995800;28;20484;-74
2022/11/26 13:44:05;;;;;;;6.28;3.30;;;;;;;;;;4995815;28;20034;-75
2022/11/26 13:46:52;;;;;;;7.18;3.40;;;;;;;;;;4993902;28;20087;-75
2022/11/26 13:49:32;;;;;;;11.02;4.20;;;;;;;;;;4995786;28;20038;-79
2022/11/26 13:52:19;;;;;;;8.07;4.30;;;;;;;;;;4995662;28;20480;-78
2022/11/26 13:55:03;;;;;;;10.38;4.13;;;;;;;;;;4997603;28;20408;-78
2022/11/26 13:57:41;;;;;;;8.77;3.88;;;;;;;;;;5015520;28;20550;-79
2022/11/26 14:00:08;;;;;;;6.47;4.25;;;;;;;;;;5015003;28;20077;-78
2022/11/26 14:02:36;;;;;;;7.53;4.35;;;;;;;;;;5014705;28;20064;-76
2022/11/26 14:05:12;;;;;;;14.02;6.35;;;;;;;;;;5013432;28;20042;-76
2022/11/26 14:07:39;;;;;;;18.00;6.15;;;;;;;;;;4995244;28;20048;-75
2022/11/26 14:10:27;;;;;;;8.90;4.68;;;;;;;;;;5014528;28;20029;-76
2022/11/26 14:13:02;;;;;;;7.65;4.72;;;;;;;;;;5013000;28;20080;-75
2022/11/26 14:15:40;;;;;;;9.13;5.40;;;;;;;;;;5014547;28;20069;-74
2022/11/26 14:18:15;;;;;;;8.77;5.88;;;;;;;;;;5014868;28;20121;-74
2022/11/26 14:20:56;;;;;;;11.15;6.85;;;;;;;;;;5013134;28;20141;-76
2022/11/26 14:23:52;;;;;;;12.75;7.68;;;;;;;;;;5014643;28;20033;-76
2022/11/26 14:26:36;;;;;;;10.02;5.05;;;;;;;;;;5014895;28;20048;-77
2022/11/26 14:29:10;;;;;;;11.75;5.60;;;;;;;;;;5014517;28;20050;-76
2022/11/26 14:31:55;;;;;;;13.52;5.35;;;;;;;;;;5010255;28;20550;-77
2022/11/26 14:34:37;;;;;;;16.38;5.72;;;;;;;;;;5012068;28;20026;-78
2022/11/26 14:37:15;;;;;;;9.43;6.30;;;;;;;;;;5013347;28;20087;-77
2022/11/26 14:39:42;;;;;;;15.73;7.47;;;;;;;;;;5011999;28;20111;-78
2022/11/26 14:42:18;;;;;;;8.02;5.10;;;;;;;;;;5013665;28;20535;-78
2022/11/26 14:44:44;;;;;;;9.88;5.57;;;;;;;;;;5012458;28;20061;-78
2022/11/26 14:47:16;;;;;;;9.95;5.63;;;;;;;;;;5013722;28;20408;-79
2022/11/26 14:49:58;;;;;;;9.65;5.82;;;;;;;;;;5012072;28;20120;-78
2022/11/26 14:52:29;;;;;;;10.70;6.45;;;;;;;;;;5013857;28;20057;-79
2022/11/26 14:55:01;;;;;;;12.32;6.88;;;;;;;;;;5012823;28;20069;-78
2022/11/26 14:57:34;;;;;;;13.98;7.60;;;;;;;;;;5013548;28;20040;-78